Time;durP1;ratioP1;P1;durP2;ratioP2;P2;SDS_P1;SDS_P2;PMS_P1;PMS_P2;Temp;Humidity;BMP_temperature;BMP_pressure;BME280_temperature;BME280_humidity;BME280_pressure;Samples;Min_cycle;Max_cycle;Signal;HPM_P1;HPM_P2
2023/01/23 00:00:53;;;;;;;12.57;8.63;;;2.30;99.90;;;;;;5032351;28;20060;-57
2023/01/23 00:03:19;;;;;;;10.38;7.88;;;2.30;99.90;;;;;;5031371;28;20057;-54
2023/01/23 00:05:44;;;;;;;12.13;8.27;;;2.30;99.90;;;;;;5032033;28;20056;-53
2023/01/23 00:08:10;;;;;;;10.57;7.68;;;2.30;99.90;;;;;;5030911;28;20057;-57
2023/01/23 00:10:37;;;;;;;11.30;8.68;;;2.20;99.90;;;;;;5031917;28;20107;-54
2023/01/23 00:13:03;;;;;;;13.27;8.40;;;2.30;99.90;;;;;;5029618;28;20029;-55
2023/01/23 00:15:28;;;;;;;11.05;7.57;;;2.30;99.90;;;;;;5032036;28;20481;-53
2023/01/23 00:17:54;;;;;;;11.88;8.38;;;2.30;99.90;;;;;;5032193;28;20021;-53
2023/01/23 00:20:19;;;;;;;14.27;8.27;;;2.30;99.90;;;;;;5030628;28;20029;-52
2023/01/23 00:22:45;;;;;;;12.38;8.75;;;2.30;99.90;;;;;;5031090;28;20393;-54
2023/01/23 00:25:11;;;;;;;12.98;8.93;;;2.30;99.90;;;;;;5031970;28;20436;-52
2023/01/23 00:27:37;;;;;;;13.05;7.95;;;2.30;99.90;;;;;;5031641;28;20029;-55
2023/01/23 00:30:03;;;;;;;12.13;8.38;;;2.40;99.90;;;;;;5031841;28;20022;-52
2023/01/23 00:32:29;;;;;;;13.05;8.70;;;2.40;99.90;;;;;;5029808;28;20022;-51
2023/01/23 00:34:54;;;;;;;15.27;9.02;;;2.40;99.90;;;;;;5031649;28;20566;-55
2023/01/23 00:37:20;;;;;;;12.05;8.48;;;2.40;99.90;;;;;;5031751;28;20036;-51
2023/01/23 00:39:49;;;;;;;12.65;8.48;;;2.40;99.90;;;;;;5031687;28;20029;-56
2023/01/23 00:42:15;;;;;;;10.77;8.13;;;2.40;99.90;;;;;;5030652;28;20025;-55
2023/01/23 00:44:40;;;;;;;12.23;9.13;;;2.40;99.90;;;;;;5031739;28;20036;-52
2023/01/23 00:47:06;;;;;;;11.85;8.32;;;2.40;99.90;;;;;;5031559;28;20386;-55
2023/01/23 00:49:31;;;;;;;13.73;9.43;;;2.40;99.90;;;;;;5031555;28;20025;-55
2023/01/23 00:51:57;;;;;;;12.07;9.05;;;2.40;99.90;;;;;;5029478;28;20025;-51
2023/01/23 00:54:24;;;;;;;11.77;8.88;;;2.50;99.90;;;;;;5030111;28;20084;-52
2023/01/23 00:56:50;;;;;;;14.45;8.98;;;2.50;99.90;;;;;;5031373;28;20035;-50
2023/01/23 00:59:16;;;;;;;12.93;8.85;;;2.50;99.90;;;;;;5031506;28;20104;-55
2023/01/23 01:01:41;;;;;;;11.25;8.15;;;2.60;99.90;;;;;;5030565;28;20540;-53
2023/01/23 01:04:07;;;;;;;11.73;7.75;;;2.60;99.90;;;;;;5030606;28;20025;-54
2023/01/23 01:06:32;;;;;;;10.63;8.20;;;2.50;99.90;;;;;;5031264;28;20033;-49
2023/01/23 01:08:58;;;;;;;13.70;9.43;;;2.60;99.90;;;;;;5031324;28;20030;-50
2023/01/23 01:11:24;;;;;;;11.43;8.50;;;2.60;99.90;;;;;;5029862;28;20032;-51
2023/01/23 01:13:50;;;;;;;10.95;8.13;;;2.50;99.90;;;;;;5030567;28;20030;-52
2023/01/23 01:16:15;;;;;;;14.65;9.93;;;2.50;99.90;;;;;;5029942;28;20079;-55
2023/01/23 01:18:41;;;;;;;12.70;8.48;;;2.50;99.90;;;;;;5031252;28;20083;-50
2023/01/23 01:21:09;;;;;;;12.38;8.43;;;2.50;99.90;;;;;;5031316;28;20079;-51
2023/01/23 01:23:35;;;;;;;12.55;8.68;;;2.50;99.90;;;;;;5030427;28;20083;-50
2023/01/23 01:26:01;;;;;;;12.73;9.18;;;2.50;99.90;;;;;;5031201;28;20029;-50
2023/01/23 01:28:29;;;;;;;12.68;9.25;;;2.50;99.90;;;;;;5031307;28;20025;-49
2023/01/23 01:30:56;;;;;;;13.65;9.63;;;2.40;99.90;;;;;;5029855;28;20053;-53
2023/01/23 01:33:23;;;;;;;11.00;7.85;;;2.40;99.90;;;;;;5030309;28;20484;-51
2023/01/23 01:35:48;;;;;;;11.95;8.57;;;2.50;99.90;;;;;;5031017;28;20418;-53
2023/01/23 01:38:14;;;;;;;13.27;8.25;;;2.40;99.90;;;;;;5029665;28;20028;-52
2023/01/23 01:40:39;;;;;;;13.07;8.93;;;2.40;99.90;;;;;;5029511;28;20035;-51
2023/01/23 01:43:14;;;;;;;13.40;9.05;;;2.40;99.90;;;;;;5030372;28;20034;-56
2023/01/23 01:46:11;;;;;;;12.60;8.65;;;2.40;99.90;;;;;;5031004;28;20047;-49
2023/01/23 01:48:42;;;;;;;;;;;2.40;99.90;;;;;;5029924;28;20512;-49
2023/01/23 01:51:28;;;;;;;15.20;9.30;;;2.40;99.90;;;;;;5030877;28;19905;-51
2023/01/23 01:54:03;;;;;;;12.65;9.02;;;2.40;99.90;;;;;;5030188;28;20409;-51
2023/01/23 01:56:31;;;;;;;12.00;8.52;;;2.40;99.90;;;;;;5030923;28;20022;-51
2023/01/23 01:58:58;;;;;;;13.38;9.25;;;2.30;99.90;;;;;;5030759;28;20056;-50
2023/01/23 02:01:25;;;;;;;17.65;8.52;;;2.30;99.90;;;;;;5030860;28;20048;-53
2023/01/23 02:03:52;;;;;;;12.75;8.93;;;2.30;99.90;;;;;;5030175;28;20036;-54
2023/01/23 02:06:19;;;;;;;14.70;9.68;;;2.20;99.90;;;;;;5030808;28;20030;-50
2023/01/23 02:08:57;;;;;;;13.98;9.10;;;2.20;99.90;;;;;;5031163;28;20497;-51
2023/01/23 02:11:22;;;;;;;11.00;8.15;;;2.20;99.90;;;;;;5028729;28;20026;-53
2023/01/23 02:13:48;;;;;;;13.05;8.60;;;2.20;99.90;;;;;;5033718;28;20052;-55
2023/01/23 02:16:22;;;;;;;13.35;8.60;;;2.20;99.90;;;;;;5034519;28;20096;-52
2023/01/23 02:18:52;;;;;;;12.23;8.43;;;2.20;99.90;;;;;;5033240;28;20025;-54
2023/01/23 02:21:21;;;;;;;11.85;8.60;;;2.20;99.90;;;;;;5034612;28;20506;-57
2023/01/23 02:24:18;;;;;;;13.02;8.65;;;2.10;99.90;;;;;;5032500;28;20036;-55
2023/01/23 02:26:45;;;;;;;13.13;9.00;;;2.10;99.90;;;;;;5034065;28;20034;-52
2023/01/23 02:29:11;;;;;;;16.35;9.77;;;2.00;99.90;;;;;;5034106;28;20389;-50
2023/01/23 02:31:37;;;;;;;12.05;8.30;;;1.90;99.90;;;;;;5032417;28;20030;-51
2023/01/23 02:34:04;;;;;;;12.05;8.25;;;1.90;99.90;;;;;;5033127;28;20473;-53
2023/01/23 02:36:33;;;;;;;13.73;8.80;;;1.80;99.90;;;;;;5033949;28;20030;-50
2023/01/23 02:39:15;;;;;;;13.65;9.07;;;1.80;99.90;;;;;;5033803;28;20053;-50
2023/01/23 02:41:46;;;;;;;12.88;7.90;;;1.80;99.90;;;;;;5033692;28;20037;-51
2023/01/23 02:44:24;;;;;;;13.25;9.07;;;1.80;99.90;;;;;;5033235;28;20085;-52
2023/01/23 02:46:50;;;;;;;16.15;9.98;;;1.70;99.90;;;;;;5032642;28;20068;-52
2023/01/23 02:49:15;;;;;;;13.57;9.98;;;1.70;99.90;;;;;;5033544;28;20024;-55
2023/01/23 02:51:41;;;;;;;16.17;10.02;;;1.80;99.90;;;;;;5033568;28;20026;-52
2023/01/23 02:54:07;;;;;;;13.07;8.82;;;1.80;99.90;;;;;;5031540;28;20516;-53
2023/01/23 02:56:33;;;;;;;12.77;8.50;;;1.80;99.90;;;;;;5033432;28;20492;-54
2023/01/23 03:01:42;;;;;;;14.40;9.27;;;1.70;99.90;;;;;;5033193;28;20036;-55
2023/01/23 03:04:08;;;;;;;12.00;8.25;;;1.60;99.90;;;;;;5032767;28;20029;-52
2023/01/23 03:06:36;;;;;;;12.40;8.57;;;1.60;99.90;;;;;;5033193;28;20084;-53
2023/01/23 03:09:08;;;;;;;11.48;7.93;;;1.60;99.90;;;;;;5033372;28;20053;-53
2023/01/23 03:11:36;;;;;;;13.07;8.65;;;1.70;99.90;;;;;;5033012;28;20493;-52
2023/01/23 03:14:02;;;;;;;12.70;9.48;;;1.70;99.90;;;;;;5032447;28;20025;-54
2023/01/23 03:16:28;;;;;;;12.32;8.50;;;1.70;99.90;;;;;;5031737;28;20037;-55
2023/01/23 03:18:56;;;;;;;13.48;8.75;;;1.80;99.90;;;;;;5033228;28;20021;-53
2023/01/23 03:21:21;;;;;;;10.63;7.70;;;1.80;99.90;;;;;;5032939;28;20025;-53
2023/01/23 03:23:47;;;;;;;16.17;9.48;;;1.90;99.90;;;;;;5031643;28;20152;-55
2023/01/23 03:26:13;;;;;;;12.35;8.88;;;1.80;99.90;;;;;;5033082;28;20037;-54
2023/01/23 03:31:22;;;;;;;14.27;9.32;;;1.80;99.90;;;;;;5033039;28;20083;-54
2023/01/23 03:33:48;;;;;;;11.73;8.30;;;1.80;99.90;;;;;;5030886;28;20041;-51
2023/01/23 03:36:13;;;;;;;13.32;9.32;;;1.80;99.90;;;;;;5032745;28;20068;-55
2023/01/23 03:41:23;;;;;;;14.15;8.65;;;1.80;99.90;;;;;;5032783;28;20504;-51
2023/01/23 03:41:25;;;;;;;;;;;1.80;99.90;;;;;;5032658;28;20029;-54
2023/01/23 03:43:51;;;;;;;13.77;8.63;;;1.90;99.90;;;;;;5031953;28;19916;-55
2023/01/23 03:46:16;;;;;;;14.50;8.75;;;1.90;99.90;;;;;;5032375;28;20036;-52
2023/01/23 03:48:42;;;;;;;12.57;9.00;;;1.90;99.90;;;;;;5031449;28;20021;-53
2023/01/23 03:51:07;;;;;;;14.43;8.70;;;1.90;99.90;;;;;;5032696;28;20600;-51
2023/01/23 03:53:33;;;;;;;16.77;10.75;;;2.00;99.90;;;;;;5031492;28;20036;-53
2023/01/23 03:55:58;;;;;;;15.23;9.75;;;2.00;99.90;;;;;;5031061;28;20029;-51
2023/01/23 03:58:24;;;;;;;14.80;9.40;;;2.00;99.90;;;;;;5032394;28;20156;-55
2023/01/23 04:00:49;;;;;;;14.77;9.80;;;2.00;99.90;;;;;;5032185;28;20021;-53
2023/01/23 04:03:15;;;;;;;14.70;9.63;;;2.00;99.90;;;;;;5030619;28;20510;-55
2023/01/23 04:05:40;;;;;;;12.88;9.38;;;2.00;99.90;;;;;;5031782;28;20028;-53
2023/01/23 04:08:06;;;;;;;16.00;9.57;;;2.00;99.90;;;;;;5032208;28;20108;-54
2023/01/23 04:10:32;;;;;;;14.40;9.02;;;2.10;99.90;;;;;;5031961;28;20032;-52
2023/01/23 04:12:58;;;;;;;15.65;9.63;;;2.20;99.90;;;;;;5031529;28;20538;-50
2023/01/23 04:15:23;;;;;;;14.82;9.55;;;2.10;99.90;;;;;;5030839;28;20028;-57
2023/01/23 04:17:49;;;;;;;12.80;8.45;;;2.10;99.90;;;;;;5032018;28;20022;-53
2023/01/23 04:20:14;;;;;;;14.02;8.57;;;2.10;99.90;;;;;;5031873;28;20052;-55
2023/01/23 04:22:40;;;;;;;14.55;9.38;;;2.10;99.90;;;;;;5031155;28;20022;-52
2023/01/23 04:25:06;;;;;;;12.40;8.25;;;2.20;99.90;;;;;;5030528;28;20025;-53
2023/01/23 04:27:31;;;;;;;13.13;8.73;;;2.20;99.90;;;;;;5031848;28;20029;-52
2023/01/23 04:29:57;;;;;;;13.60;9.10;;;2.20;99.90;;;;;;5031792;28;20497;-56
2023/01/23 04:32:24;;;;;;;14.50;9.15;;;2.20;99.90;;;;;;5030942;28;20026;-54
2023/01/23 04:34:49;;;;;;;11.88;8.25;;;2.20;99.90;;;;;;5031703;28;20026;-52
2023/01/23 04:37:15;;;;;;;13.02;8.80;;;2.20;99.90;;;;;;5031741;28;20029;-56
2023/01/23 04:39:41;;;;;;;14.25;8.45;;;2.30;99.90;;;;;;5031665;28;20047;-56
2023/01/23 04:42:07;;;;;;;12.23;7.70;;;2.30;99.90;;;;;;5030680;28;20452;-52
2023/01/23 04:44:32;;;;;;;13.05;8.63;;;2.30;99.90;;;;;;5030398;28;20116;-55
2023/01/23 04:46:59;;;;;;;14.13;9.32;;;2.30;99.90;;;;;;5031362;28;20033;-58
2023/01/23 04:49:25;;;;;;;12.15;7.97;;;2.30;99.90;;;;;;5031849;28;20021;-52
2023/01/23 04:51:52;;;;;;;17.48;9.05;;;2.30;99.90;;;;;;5029835;28;20409;-55
2023/01/23 04:54:18;;;;;;;12.05;8.23;;;2.30;99.90;;;;;;5031304;28;20022;-55
2023/01/23 04:56:44;;;;;;;11.15;7.32;;;2.30;99.90;;;;;;5031293;28;20115;-53
2023/01/23 04:59:11;;;;;;;11.68;7.70;;;2.40;99.90;;;;;;5031639;28;20538;-55
2023/01/23 05:01:36;;;;;;;12.52;8.55;;;2.30;99.90;;;;;;5029947;28;20475;-55
2023/01/23 05:04:02;;;;;;;12.07;8.20;;;2.20;99.90;;;;;;5029458;28;20116;-49
2023/01/23 05:06:28;;;;;;;12.45;8.52;;;2.20;99.90;;;;;;5031125;28;20083;-52
2023/01/23 05:08:54;;;;;;;12.90;7.85;;;2.30;99.90;;;;;;5031767;28;20555;-53
2023/01/23 05:11:19;;;;;;;10.48;7.38;;;2.30;99.90;;;;;;5031194;28;20026;-55
2023/01/23 05:13:45;;;;;;;10.20;7.63;;;2.40;99.90;;;;;;5030558;28;20478;-53
2023/01/23 05:16:11;;;;;;;9.73;6.60;;;2.40;99.90;;;;;;5029933;28;20083;-55
2023/01/23 05:18:36;;;;;;;9.95;7.00;;;2.40;99.90;;;;;;5031370;28;20056;-56
2023/01/23 05:21:02;;;;;;;9.98;6.95;;;2.30;99.90;;;;;;5030981;28;20061;-55
2023/01/23 05:23:27;;;;;;;10.98;7.63;;;2.40;99.90;;;;;;5030580;28;20022;-54
2023/01/23 05:25:53;;;;;;;12.40;7.07;;;2.40;99.90;;;;;;5029855;28;20026;-51
2023/01/23 05:28:21;;;;;;;8.43;6.60;;;2.30;99.90;;;;;;5031084;28;20040;-54
2023/01/23 05:30:46;;;;;;;10.10;6.45;;;2.40;99.90;;;;;;5031220;28;20404;-56
2023/01/23 05:33:12;;;;;;;8.27;6.53;;;2.30;99.90;;;;;;5030354;28;20030;-52
2023/01/23 05:35:38;;;;;;;10.00;7.55;;;2.30;99.90;;;;;;5029690;28;20033;-50
2023/01/23 05:38:04;;;;;;;10.18;6.50;;;2.30;99.90;;;;;;5030943;28;20448;-49
2023/01/23 05:40:40;;;;;;;9.07;6.72;;;2.30;99.90;;;;;;5031224;28;20033;-52
2023/01/23 05:43:06;;;;;;;10.70;7.32;;;2.30;99.90;;;;;;5030274;28;20030;-55
2023/01/23 05:45:33;;;;;;;10.32;6.88;;;2.30;99.90;;;;;;5030969;28;20032;-55
2023/01/23 05:47:59;;;;;;;7.28;5.75;;;2.30;99.90;;;;;;5032772;28;20378;-52
2023/01/23 05:50:24;;;;;;;12.35;7.05;;;2.30;99.90;;;;;;5034655;28;20018;-54
2023/01/23 05:52:50;;;;;;;8.70;5.72;;;2.30;99.90;;;;;;5034261;28;20026;-55
2023/01/23 05:55:15;;;;;;;8.02;6.00;;;2.30;99.90;;;;;;5034744;28;20025;-56
2023/01/23 05:57:41;;;;;;;8.70;6.50;;;2.30;99.90;;;;;;5034485;28;20112;-55
2023/01/23 06:00:11;;;;;;;8.88;6.55;;;2.40;99.90;;;;;;5034387;28;20132;-55
2023/01/23 06:02:37;;;;;;;9.15;6.55;;;2.40;99.90;;;;;;5033713;28;20036;-53
2023/01/23 06:05:02;;;;;;;8.68;5.85;;;2.40;99.90;;;;;;5034639;28;20030;-54
2023/01/23 06:07:28;;;;;;;7.82;5.65;;;2.40;99.90;;;;;;5034308;28;20022;-57
2023/01/23 06:09:53;;;;;;;11.15;6.55;;;2.40;99.90;;;;;;5033095;28;20053;-51
2023/01/23 06:12:19;;;;;;;7.68;5.90;;;2.30;99.90;;;;;;5033620;28;20021;-54
2023/01/23 06:14:46;;;;;;;10.18;6.68;;;2.40;99.90;;;;;;5034443;28;20029;-57
2023/01/23 06:17:12;;;;;;;8.70;5.88;;;2.30;99.90;;;;;;5034320;28;20052;-52
2023/01/23 06:19:37;;;;;;;10.20;6.82;;;2.40;99.90;;;;;;5034307;28;20025;-52
2023/01/23 06:22:03;;;;;;;10.57;6.68;;;2.40;99.90;;;;;;5033268;28;20037;-53
2023/01/23 06:24:29;;;;;;;7.57;5.85;;;2.40;99.90;;;;;;5034366;28;20037;-54
2023/01/23 06:26:55;;;;;;;7.90;5.82;;;2.50;99.90;;;;;;5033860;28;20532;-52
2023/01/23 06:29:20;;;;;;;7.63;6.28;;;2.40;99.90;;;;;;5034347;28;20041;-56
2023/01/23 06:31:47;;;;;;;7.20;5.80;;;2.50;99.90;;;;;;5033680;28;20493;-62
2023/01/23 06:34:14;;;;;;;9.70;7.10;;;2.50;99.90;;;;;;5033510;28;20481;-57
2023/01/23 06:36:39;;;;;;;9.63;6.63;;;2.50;99.90;;;;;;5033706;28;20053;-50
2023/01/23 06:39:06;;;;;;;10.68;7.72;;;2.50;99.90;;;;;;5033761;28;20684;-53
2023/01/23 06:41:31;;;;;;;8.75;6.50;;;2.50;99.90;;;;;;5033609;28;20041;-54
2023/01/23 06:43:57;;;;;;;9.63;7.20;;;2.50;99.90;;;;;;5033069;28;20029;-52
2023/01/23 06:46:23;;;;;;;9.57;7.15;;;2.50;99.90;;;;;;5033800;28;20026;-56
2023/01/23 06:48:49;;;;;;;10.68;6.18;;;2.50;99.90;;;;;;5032430;28;20060;-53
2023/01/23 06:51:14;;;;;;;9.65;7.00;;;2.50;99.90;;;;;;5033688;28;20018;-55
2023/01/23 06:53:40;;;;;;;10.20;6.80;;;2.50;99.90;;;;;;5032987;28;20017;-51
2023/01/23 06:56:07;;;;;;;9.57;7.20;;;2.60;99.90;;;;;;5033329;28;20416;-53
2023/01/23 06:58:33;;;;;;;9.88;6.78;;;2.60;99.90;;;;;;5032525;28;20072;-52
2023/01/23 07:01:06;;;;;;;9.75;6.53;;;2.60;99.90;;;;;;5033007;28;20060;-52
2023/01/23 07:03:32;;;;;;;9.35;7.28;;;2.60;99.90;;;;;;5031393;28;20022;-55
2023/01/23 07:06:01;;;;;;;8.38;6.90;;;2.50;99.90;;;;;;5033477;28;20027;-54
2023/01/23 07:08:27;;;;;;;8.75;7.10;;;2.50;99.90;;;;;;5031929;28;20097;-51
2023/01/23 07:10:53;;;;;;;9.68;7.05;;;2.50;99.90;;;;;;5031767;28;20021;-49
2023/01/23 07:13:18;;;;;;;8.60;6.40;;;2.50;99.90;;;;;;5032493;28;20090;-54
2023/01/23 07:15:46;;;;;;;10.90;7.35;;;2.50;99.90;;;;;;5032985;28;20021;-55
2023/01/23 07:18:11;;;;;;;11.07;7.10;;;2.60;99.90;;;;;;5031562;28;20026;-53
2023/01/23 07:20:37;;;;;;;9.82;6.63;;;2.50;99.90;;;;;;5033016;28;20408;-50
2023/01/23 07:23:02;;;;;;;8.80;6.72;;;2.40;99.90;;;;;;5031973;28;20493;-52
2023/01/23 07:25:29;;;;;;;9.15;7.25;;;2.40;99.90;;;;;;5032810;28;20068;-52
2023/01/23 07:27:54;;;;;;;10.88;7.43;;;2.40;99.90;;;;;;5033229;28;20044;-50
2023/01/23 07:30:20;;;;;;;9.18;6.68;;;2.50;99.90;;;;;;5032604;28;20021;-49
2023/01/23 07:32:46;;;;;;;10.52;7.32;;;2.40;99.90;;;;;;5031950;28;20155;-53
2023/01/23 07:35:11;;;;;;;10.27;7.18;;;2.40;99.90;;;;;;5032602;28;20548;-51
2023/01/23 07:37:37;;;;;;;11.63;7.20;;;2.40;99.90;;;;;;5031367;28;20030;-52
2023/01/23 07:40:03;;;;;;;9.50;7.55;;;2.40;99.90;;;;;;5032493;28;20401;-52
2023/01/23 07:42:28;;;;;;;11.35;7.82;;;2.40;99.90;;;;;;5032078;28;20335;-50
2023/01/23 07:44:54;;;;;;;11.05;6.95;;;2.40;99.90;;;;;;5032588;28;20100;-50
2023/01/23 07:47:19;;;;;;;8.50;6.47;;;2.40;99.90;;;;;;5032539;28;20393;-49
2023/01/23 07:49:45;;;;;;;9.77;7.18;;;2.40;99.90;;;;;;5032339;28;20100;-52
2023/01/23 07:52:10;;;;;;;9.45;6.75;;;2.40;99.90;;;;;;5031765;28;20540;-51
2023/01/23 07:54:36;;;;;;;11.02;6.80;;;2.40;99.90;;;;;;5031100;28;20040;-49
2023/01/23 07:57:01;;;;;;;9.77;7.15;;;2.40;99.90;;;;;;5032638;28;20030;-56
2023/01/23 07:59:27;;;;;;;8.90;6.45;;;2.40;99.90;;;;;;5032142;28;20112;-52
2023/01/23 08:01:52;;;;;;;9.30;6.82;;;2.40;99.90;;;;;;5032189;28;20113;-51
2023/01/23 08:04:18;;;;;;;8.40;6.32;;;2.50;99.90;;;;;;5032316;28;20108;-50
2023/01/23 08:06:44;;;;;;;8.43;6.60;;;2.60;99.90;;;;;;5032119;28;20032;-53
2023/01/23 08:09:10;;;;;;;9.32;6.65;;;2.60;99.90;;;;;;5032406;28;20104;-55
2023/01/23 08:11:35;;;;;;;8.75;6.88;;;2.60;99.90;;;;;;5031927;28;20095;-55
2023/01/23 08:14:01;;;;;;;9.38;6.80;;;2.70;99.90;;;;;;5031204;28;20438;-54
2023/01/23 08:16:27;;;;;;;7.80;6.05;;;2.60;99.90;;;;;;5032200;28;20037;-54
2023/01/23 08:18:53;;;;;;;9.70;6.65;;;2.50;99.90;;;;;;5032293;28;20029;-54
2023/01/23 08:21:19;;;;;;;10.77;6.63;;;2.60;99.90;;;;;;5032260;28;20090;-55
2023/01/23 08:23:45;;;;;;;7.72;6.32;;;2.50;99.90;;;;;;5031399;28;20026;-57
2023/01/23 08:26:13;;;;;;;9.80;7.32;;;2.50;99.90;;;;;;5032129;28;20056;-50
2023/01/23 08:28:39;;;;;;;9.50;6.35;;;2.60;99.90;;;;;;5030603;28;20108;-53
2023/01/23 08:31:07;;;;;;;8.18;5.88;;;2.60;99.90;;;;;;5031981;28;20152;-55
2023/01/23 08:33:34;;;;;;;7.60;5.95;;;2.60;99.90;;;;;;5031325;28;20041;-55
2023/01/23 08:36:00;;;;;;;8.95;6.90;;;2.60;99.90;;;;;;5032076;28;20404;-55
2023/01/23 08:38:25;;;;;;;8.98;6.47;;;2.60;99.90;;;;;;5031832;28;20104;-51
2023/01/23 08:40:52;;;;;;;8.38;6.65;;;2.60;99.90;;;;;;5029489;28;20039;-52
2023/01/23 08:43:19;;;;;;;8.00;6.15;;;2.60;99.90;;;;;;5028336;28;20389;-56
2023/01/23 08:45:48;;;;;;;9.18;5.60;;;2.60;99.90;;;;;;5027812;28;20057;-54
2023/01/23 08:48:14;;;;;;;6.55;5.57;;;2.80;99.90;;;;;;5014895;28;20104;-53
2023/01/23 08:50:40;;;;;;;7.65;6.05;;;2.80;99.90;;;;;;5029163;28;20545;-56
2023/01/23 08:53:06;;;;;;;7.32;5.97;;;2.80;99.90;;;;;;5025318;28;20057;-53
2023/01/23 08:55:32;;;;;;;8.25;6.60;;;3.00;99.90;;;;;;5031171;28;20104;-52
2023/01/23 08:57:58;;;;;;;9.02;6.65;;;3.00;99.90;;;;;;5031658;28;20053;-52
2023/01/23 09:00:24;;;;;;;8.30;6.10;;;2.90;99.90;;;;;;5031354;28;20064;-53
2023/01/23 09:02:50;;;;;;;8.18;6.22;;;2.80;99.90;;;;;;5030601;28;20080;-53
2023/01/23 09:05:16;;;;;;;10.55;7.40;;;2.80;99.90;;;;;;5031011;28;20070;-52
2023/01/23 09:07:42;;;;;;;11.07;7.43;;;2.80;99.90;;;;;;5031574;28;20033;-60
2023/01/23 09:10:08;;;;;;;9.13;6.80;;;2.80;99.90;;;;;;5029949;28;20139;-56
2023/01/23 09:12:33;;;;;;;8.30;6.90;;;2.80;99.90;;;;;;5030833;28;20454;-52
2023/01/23 09:14:59;;;;;;;9.07;6.90;;;2.90;99.90;;;;;;5030412;28;20148;-50
2023/01/23 09:17:25;;;;;;;12.35;6.78;;;2.80;99.90;;;;;;5030098;28;20026;-47
2023/01/23 09:19:51;;;;;;;9.88;7.15;;;2.80;99.90;;;;;;5030322;28;20038;-47
2023/01/23 09:22:17;;;;;;;10.93;7.40;;;2.80;99.90;;;;;;5031889;28;20033;-48
2023/01/23 09:24:43;;;;;;;13.93;7.65;;;2.80;99.90;;;;;;5035539;28;20032;-54
2023/01/23 09:27:08;;;;;;;10.80;6.72;;;2.80;99.90;;;;;;5035515;28;20115;-50
2023/01/23 09:29:34;;;;;;;9.00;7.03;;;2.80;99.90;;;;;;5035787;28;20021;-48
2023/01/23 09:32:00;;;;;;;9.50;6.53;;;2.90;99.90;;;;;;5034669;28;20043;-53
2023/01/23 09:34:27;;;;;;;10.52;6.35;;;2.90;99.90;;;;;;5035911;28;20053;-54
2023/01/23 09:36:52;;;;;;;8.52;6.57;;;3.00;99.90;;;;;;5035244;28;20022;-50
2023/01/23 09:39:18;;;;;;;9.10;6.78;;;3.00;99.90;;;;;;5033420;28;20025;-51
2023/01/23 09:41:44;;;;;;;8.48;6.35;;;3.00;99.90;;;;;;5034941;28;20041;-51
2023/01/23 09:44:17;;;;;;;10.02;6.28;;;3.00;99.90;;;;;;5034860;28;20084;-53
2023/01/23 09:46:51;;;;;;;8.60;6.90;;;3.00;99.90;;;;;;5030381;28;20031;-54
2023/01/23 09:49:41;;;;;;;10.05;5.97;;;3.00;99.90;;;;;;5033750;28;20370;-48
2023/01/23 09:52:14;;;;;;;8.68;6.18;;;3.00;99.90;;;;;;5034297;28;20030;-47
2023/01/23 09:54:43;;;;;;;8.45;6.35;;;3.10;99.90;;;;;;5035194;28;20022;-51
2023/01/23 09:57:41;;;;;;;6.68;5.20;;;3.10;99.90;;;;;;5034891;28;20021;-49
2023/01/23 10:00:26;;;;;;;7.32;5.00;;;3.20;99.90;;;;;;5019582;28;20516;-51
2023/01/23 10:02:53;;;;;;;6.45;4.95;;;3.30;99.90;;;;;;5033907;28;20044;-49
2023/01/23 10:05:29;;;;;;;6.20;5.47;;;3.30;99.90;;;;;;5035246;28;20148;-52
2023/01/23 10:08:04;;;;;;;6.68;5.32;;;3.20;99.90;;;;;;5034849;28;20037;-52
2023/01/23 10:10:46;;;;;;;7.70;5.57;;;3.20;99.90;;;;;;5028951;28;20579;-49
2023/01/23 10:13:18;;;;;;;8.65;5.82;;;3.20;99.90;;;;;;5025558;28;20136;-50
2023/01/23 10:16:12;;;;;;;8.40;5.38;;;3.20;99.90;;;;;;5034584;28;20362;-48
2023/01/23 10:18:53;;;;;;;5.25;4.72;;;3.20;99.90;;;;;;5014475;28;20413;-50
2023/01/23 10:21:27;;;;;;;6.93;5.35;;;3.20;99.90;;;;;;5013480;28;20033;-51
2023/01/23 10:24:02;;;;;;;6.28;5.40;;;3.30;99.90;;;;;;5025035;28;20366;-49
2023/01/23 10:26:38;;;;;;;12.68;5.68;;;3.30;99.90;;;;;;5032837;28;20119;-50
2023/01/23 10:29:13;;;;;;;;;;;3.40;99.90;;;;;;5034057;28;20394;-47
2023/01/23 10:31:40;;;;;;;6.90;5.43;;;3.40;99.90;;;;;;5034307;28;20365;-46
2023/01/23 10:34:17;;;;;;;10.63;5.18;;;3.40;99.90;;;;;;5032796;28;20037;-49
2023/01/23 10:37:01;;;;;;;7.53;5.32;;;3.50;99.90;;;;;;5033036;28;20027;-48
2023/01/23 10:39:41;;;;;;;7.00;5.93;;;3.50;99.90;;;;;;5032173;28;20026;-53
2023/01/23 10:42:13;;;;;;;9.43;5.40;;;3.50;99.90;;;;;;5032446;28;20122;-47
2023/01/23 10:44:39;;;;;;;11.45;6.10;;;3.50;99.90;;;;;;5032388;28;20021;-52
2023/01/23 10:47:17;;;;;;;9.05;6.00;;;3.50;99.90;;;;;;5032776;28;20025;-48
2023/01/23 10:49:44;;;;;;;9.23;6.07;;;3.50;99.90;;;;;;5032898;28;20537;-53
2023/01/23 10:52:46;;;;;;;6.47;5.70;;;3.40;99.90;;;;;;5033261;28;20037;-56
2023/01/23 10:55:18;;;;;;;7.78;5.95;;;3.40;99.90;;;;;;5032466;28;20044;-56
2023/01/23 10:57:47;;;;;;;7.43;5.80;;;3.30;99.90;;;;;;5033876;28;20417;-56
2023/01/23 11:00:43;;;;;;;6.95;5.53;;;3.40;99.90;;;;;;5033826;28;20508;-52
2023/01/23 11:03:33;;;;;;;6.45;5.43;;;3.30;99.90;;;;;;5033361;28;20029;-54
2023/01/23 11:06:05;;;;;;;8.52;5.47;;;3.50;99.90;;;;;;5021353;28;20124;-54
2023/01/23 11:08:38;;;;;;;8.82;6.70;;;3.50;99.90;;;;;;5014228;28;20026;-55
2023/01/23 11:11:21;;;;;;;9.05;6.53;;;3.50;99.90;;;;;;5013780;28;20018;-54
2023/01/23 11:13:49;;;;;;;13.55;6.57;;;3.50;99.90;;;;;;5013516;28;20018;-52
2023/01/23 11:16:18;;;;;;;16.92;7.45;;;3.60;99.90;;;;;;5012629;28;20022;-54
2023/01/23 11:19:06;;;;;;;8.48;6.72;;;3.60;99.90;;;;;;5013484;28;20700;-55
2023/01/23 11:21:48;;;;;;;7.68;6.07;;;3.70;99.90;;;;;;5010325;28;20096;-55
2023/01/23 11:24:31;;;;;;;8.57;6.70;;;3.70;99.90;;;;;;5011681;28;20485;-54
2023/01/23 11:27:14;;;;;;;8.40;6.70;;;3.60;99.90;;;;;;5013256;28;20482;-53
2023/01/23 11:29:57;;;;;;;8.38;6.25;;;3.70;99.90;;;;;;5012459;28;20033;-53
2023/01/23 11:32:24;;;;;;;7.13;6.28;;;3.70;99.90;;;;;;5012759;28;20021;-55
2023/01/23 11:34:53;;;;;;;8.30;6.30;;;3.70;99.90;;;;;;5013583;28;20022;-49
2023/01/23 11:37:35;;;;;;;9.75;6.28;;;3.70;99.90;;;;;;5029806;28;20380;-55
2023/01/23 11:40:11;;;;;;;9.07;6.82;;;3.70;99.90;;;;;;5032759;28;20060;-52
2023/01/23 11:42:40;;;;;;;8.93;5.88;;;3.60;99.90;;;;;;5026143;23;20050;-54
2023/01/23 11:45:19;;;;;;;7.50;6.35;;;3.60;99.90;;;;;;5010407;28;20026;-53
2023/01/23 11:47:59;;;;;;;8.77;6.43;;;3.60;99.90;;;;;;4997136;28;20034;-49
2023/01/23 11:50:45;;;;;;;7.50;5.60;;;3.60;99.90;;;;;;5012868;28;20018;-50
2023/01/23 11:53:18;;;;;;;10.40;6.82;;;3.60;99.90;;;;;;5008523;28;20563;-49
2023/01/23 11:56:14;;;;;;;9.43;7.18;;;3.60;99.90;;;;;;4993046;28;20402;-47
2023/01/23 11:59:04;;;;;;;8.68;6.97;;;3.60;99.90;;;;;;5004514;28;20041;-52
2023/01/23 12:02:14;;;;;;;8.02;6.25;;;3.60;99.90;;;;;;5012291;28;20693;-52
2023/01/23 12:05:12;;;;;;;9.35;6.38;;;3.70;99.90;;;;;;5012135;28;20046;-52
2023/01/23 12:07:53;;;;;;;11.65;6.75;;;3.70;99.90;;;;;;5012158;28;20029;-51
2023/01/23 12:10:22;;;;;;;8.25;6.68;;;3.80;99.90;;;;;;5012156;28;20026;-48
2023/01/23 12:13:22;;;;;;;12.30;6.75;;;3.80;99.90;;;;;;5011156;28;20029;-48
2023/01/23 12:16:00;;;;;;;9.40;6.25;;;3.90;99.90;;;;;;5011665;28;20045;-54
2023/01/23 12:18:55;;;;;;;9.07;6.38;;;3.90;99.90;;;;;;5000177;28;20129;-54
2023/01/23 12:21:48;;;;;;;10.52;7.00;;;3.90;99.90;;;;;;4999715;28;20041;-56
2023/01/23 12:24:24;;;;;;;8.10;6.35;;;3.90;99.90;;;;;;5011609;28;20113;-53
2023/01/23 12:27:00;;;;;;;10.30;7.15;;;3.90;99.90;;;;;;5011443;28;20548;-55
2023/01/23 12:29:50;;;;;;;8.57;6.68;;;3.90;99.90;;;;;;5012043;28;20065;-55
2023/01/23 12:32:24;;;;;;;10.45;6.15;;;3.80;99.90;;;;;;5006147;28;20042;-50
2023/01/23 12:35:13;;;;;;;10.07;6.60;;;3.90;99.90;;;;;;5011800;28;20034;-53
2023/01/23 12:38:14;;;;;;;9.40;5.88;;;3.90;99.90;;;;;;5002891;28;20038;-61
2023/01/23 12:40:57;;;;;;;9.68;5.95;;;4.00;99.90;;;;;;5011692;28;20057;-62
2023/01/23 12:43:39;;;;;;;8.27;5.85;;;4.10;99.90;;;;;;5011652;28;20434;-59
2023/01/23 12:46:29;;;;;;;9.40;6.63;;;4.10;99.90;;;;;;5011787;28;20034;-62
2023/01/23 12:49:08;;;;;;;11.68;5.72;;;4.20;99.90;;;;;;5002050;28;20515;-59
2023/01/23 12:51:37;;;;;;;7.63;5.72;;;4.20;99.90;;;;;;5006275;28;20026;-59
2023/01/23 12:54:08;;;;;;;9.57;6.15;;;4.20;99.90;;;;;;5010321;28;20409;-54
2023/01/23 12:56:38;;;;;;;7.25;5.53;;;4.20;99.90;;;;;;5010685;28;20032;-59
2023/01/23 12:59:49;;;;;;;10.75;5.82;;;4.20;99.90;;;;;;5011607;28;20401;-58
2023/01/23 13:02:38;;;;;;;7.25;5.47;;;4.20;99.90;;;;;;4986739;28;20034;-60
2023/01/23 13:05:41;;;;;;;8.10;6.18;;;4.20;99.90;;;;;;5011833;28;20038;-59
2023/01/23 13:08:25;;;;;;;9.07;5.93;;;4.30;99.90;;;;;;4980845;28;20067;-60
2023/01/23 13:13:47;;;;;;;;;;;4.40;99.90;;;;;;5011453;28;20032;-60
2023/01/23 13:16:15;;;;;;;6.55;5.35;;;4.50;99.90;;;;;;5011440;28;19906;-59